Aitkin, Minnesota
Current Conditions -  °F | °C
As of 10:53 AM on Wednesday 22 Oct 2014 (Local Time) from KAIT Reporting Station
Broken Clouds Broken Clouds  
Wind Chill: 11°   Ceiling: 4700
Heat Index: 11°   Visibility: 10mi
Dew Point:   Wind: 12mph
Humidity: 67%   Direction: 150°SSE
Pressure: 30.09"   Gusts: 21mph
Location:  46.53°N, 93.71°W
Report Text: KAIT 221553Z AUTO 15010G18KT 10SM BKN047 11/05 A3009 RMK AO2
Loading
Personal Weather Stations






























Interactive Weather Map New forecast layout! Learn more

10-Day Weather Forecast

Advertisements
Track Severe Weather on mobile